Time;durP1;ratioP1;P1;durP2;ratioP2;P2;SDS_P1;SDS_P2;PMS_P1;PMS_P2;Temp;Humidity;BMP_temperature;BMP_pressure;BME280_temperature;BME280_humidity;BME280_pressure;Samples;Min_cycle;Max_cycle;Signal;HPM_P1;HPM_P2
2022/01/22 00:02:24;;;;;;;4.57;3.97;;;3.70;99.90;;;;;;5054582;28;20447;-55
2022/01/22 00:05:11;;;;;;;5.97;4.10;;;3.60;99.90;;;;;;5054057;28;20049;-57
2022/01/22 00:07:55;;;;;;;4.80;4.05;;;3.60;99.90;;;;;;5053327;28;20028;-58
2022/01/22 00:10:42;;;;;;;4.50;3.75;;;3.60;99.90;;;;;;5054649;28;20123;-56
2022/01/22 00:16:29;;;;;;;6.40;3.92;;;3.70;99.90;;;;;;5049976;28;20060;-57
2022/01/22 00:19:14;;;;;;;5.13;4.07;;;3.60;99.90;;;;;;5040454;28;20036;-54
2022/01/22 00:21:59;;;;;;;3.70;3.30;;;3.60;99.90;;;;;;5049467;28;20048;-56
2022/01/22 00:24:46;;;;;;;5.10;4.03;;;3.60;99.90;;;;;;5049209;28;20127;-52
2022/01/22 00:27:30;;;;;;;3.55;3.08;;;3.70;99.90;;;;;;5027332;28;20413;-57
2022/01/22 00:30:18;;;;;;;4.15;3.72;;;3.80;99.90;;;;;;5043923;28;20036;-56
2022/01/22 00:33:02;;;;;;;3.80;3.33;;;3.70;99.90;;;;;;5052173;28;20515;-53
2022/01/22 00:35:46;;;;;;;4.18;3.38;;;3.70;99.90;;;;;;5052719;28;20040;-57
2022/01/22 00:38:31;;;;;;;3.65;3.22;;;3.80;99.90;;;;;;5054335;28;20123;-54
2022/01/22 00:41:15;;;;;;;3.83;3.22;;;3.80;99.90;;;;;;5052855;28;20037;-58
2022/01/22 00:43:59;;;;;;;4.07;3.50;;;3.80;99.90;;;;;;5066761;28;20044;-56
2022/01/22 00:46:43;;;;;;;3.92;3.40;;;3.90;99.90;;;;;;5052593;28;20040;-56
2022/01/22 00:49:28;;;;;;;3.88;3.25;;;4.00;99.90;;;;;;5051275;28;20047;-56
2022/01/22 00:52:13;;;;;;;3.88;3.35;;;4.00;99.90;;;;;;5054246;28;20120;-60
2022/01/22 00:54:57;;;;;;;9.10;7.03;;;3.90;99.90;;;;;;5057892;28;20039;-57
2022/01/22 00:57:41;;;;;;;6.20;3.40;;;3.90;99.90;;;;;;5025007;28;20082;-58
2022/01/22 01:00:26;;;;;;;5.43;3.97;;;3.90;99.90;;;;;;5052977;28;20499;-55
2022/01/22 01:03:10;;;;;;;5.28;4.32;;;4.00;99.90;;;;;;5052937;28;20041;-58
2022/01/22 01:05:54;;;;;;;5.53;4.75;;;4.30;99.90;;;;;;5049738;28;20397;-57
2022/01/22 01:08:39;;;;;;;8.57;6.10;;;4.30;99.90;;;;;;5054486;28;20079;-58
2022/01/22 01:11:26;;;;;;;9.57;6.90;;;4.60;99.90;;;;;;5049421;28;20047;-56
2022/01/22 01:14:16;;;;;;;9.73;7.03;;;4.90;99.90;;;;;;5065872;28;20043;-56
2022/01/22 01:32:12;;;;;;;14.40;9.98;;;5.40;99.90;;;;;;5052507;28;20562;-58
2022/01/22 01:34:58;;;;;;;11.50;8.88;;;5.50;99.90;;;;;;5051771;28;20044;-55
2022/01/22 01:37:42;;;;;;;11.90;9.77;;;5.50;99.90;;;;;;5036557;28;20040;-54
2022/01/22 01:40:28;;;;;;;11.75;9.48;;;5.40;99.90;;;;;;5036895;28;20044;-61
2022/01/22 01:43:21;;;;;;;12.20;9.23;;;5.40;99.90;;;;;;5032242;28;20071;-58
2022/01/22 01:46:05;;;;;;;11.95;9.75;;;5.50;99.90;;;;;;5052451;28;20051;-59
2022/01/22 01:48:49;;;;;;;13.48;9.95;;;5.50;99.90;;;;;;5050621;28;20036;-56
2022/01/22 01:51:35;;;;;;;12.75;9.63;;;5.50;99.90;;;;;;5049260;28;20074;-55
2022/01/22 01:54:33;;;;;;;;;;;5.50;99.90;;;;;;5052428;28;20180;-56
2022/01/22 01:57:32;;;;;;;15.43;10.35;;;5.50;99.90;;;;;;5050235;28;19958;-50
2022/01/22 02:00:20;;;;;;;14.65;10.80;;;5.60;99.90;;;;;;5050493;28;20055;-56
2022/01/22 02:03:06;;;;;;;14.35;10.68;;;5.60;99.90;;;;;;5052194;28;20142;-55
2022/01/22 02:05:51;;;;;;;14.35;10.57;;;5.60;99.90;;;;;;5051045;28;20027;-53
2022/01/22 02:08:35;;;;;;;12.93;10.20;;;5.50;99.90;;;;;;5052214;28;20086;-54
2022/01/22 02:11:22;;;;;;;13.20;9.82;;;5.50;99.90;;;;;;5050209;28;20082;-56
2022/01/22 02:26:18;;;;;;;15.18;10.15;;;5.70;99.90;;;;;;5039965;28;20554;-56
2022/01/22 02:29:04;;;;;;;12.85;10.55;;;5.60;99.90;;;;;;5052306;28;20032;-56
2022/01/22 02:32:14;;;;;;;12.23;9.65;;;5.60;99.90;;;;;;5050748;28;20036;-58
2022/01/22 02:35:08;;;;;;;12.85;10.10;;;5.70;99.90;;;;;;5043633;28;20519;-58
2022/01/22 02:37:59;;;;;;;12.85;9.85;;;5.60;99.90;;;;;;5051668;28;20039;-58
2022/01/22 02:40:47;;;;;;;13.85;10.05;;;5.70;99.90;;;;;;5052139;28;20087;-51
2022/01/22 02:43:32;;;;;;;12.55;9.60;;;5.60;99.90;;;;;;5044447;28;20126;-54
2022/01/22 02:46:18;;;;;;;;;;;5.70;99.90;;;;;;5044022;28;20021;-52
2022/01/22 02:49:03;;;;;;;14.90;10.45;;;5.70;99.90;;;;;;5041413;28;19924;-52
2022/01/22 02:51:47;;;;;;;13.77;11.38;;;5.70;99.90;;;;;;5048886;28;20056;-55
2022/01/22 02:54:31;;;;;;;12.63;9.73;;;5.80;99.90;;;;;;5051194;28;20040;-57
2022/01/22 02:57:15;;;;;;;12.57;10.27;;;5.90;99.90;;;;;;5050959;28;20035;-57
2022/01/22 03:00:00;;;;;;;13.05;10.32;;;5.80;99.90;;;;;;5036997;28;20499;-57
2022/01/22 03:02:44;;;;;;;13.73;10.95;;;5.90;99.90;;;;;;5051227;28;20079;-52
2022/01/22 03:05:33;;;;;;;13.13;10.38;;;5.80;99.90;;;;;;5064975;28;20110;-50
2022/01/22 03:08:19;;;;;;;13.55;10.13;;;5.80;99.90;;;;;;5051858;28;20628;-51
2022/01/22 03:11:15;;;;;;;13.23;10.35;;;5.80;99.90;;;;;;5051683;28;20086;-50
2022/01/22 03:14:36;;;;;;;13.73;10.75;;;5.80;99.90;;;;;;5051281;28;20067;-56
2022/01/22 03:17:29;;;;;;;13.45;10.60;;;5.80;99.90;;;;;;5037042;28;20199;-58
2022/01/22 03:29:16;;;;;;;11.82;9.45;;;5.90;99.90;;;;;;5054190;28;20052;-57
2022/01/22 03:32:01;;;;;;;13.40;10.30;;;5.90;99.90;;;;;;5055117;28;20079;-55
2022/01/22 03:37:59;;;;;;;10.70;9.23;;;5.90;99.90;;;;;;5039621;28;20084;-52
2022/01/22 03:40:48;;;;;;;9.57;7.73;;;5.90;99.90;;;;;;5050976;28;20546;-51
2022/01/22 03:43:32;;;;;;;10.48;7.80;;;5.90;99.90;;;;;;5054793;28;20044;-58
2022/01/22 03:46:17;;;;;;;10.15;7.35;;;5.90;99.90;;;;;;5054560;28;20036;-58
2022/01/22 03:49:01;;;;;;;11.02;7.15;;;5.90;99.90;;;;;;5038958;28;20391;-53
2022/01/22 03:51:45;;;;;;;9.63;7.45;;;6.00;99.90;;;;;;5054627;28;20087;-53
2022/01/22 03:54:30;;;;;;;12.67;7.90;;;6.00;99.90;;;;;;5053433;28;20090;-55
2022/01/22 03:57:14;;;;;;;9.95;7.65;;;6.00;99.90;;;;;;5041412;28;20599;-56
2022/01/22 03:59:58;;;;;;;6.13;4.53;;;5.90;99.90;;;;;;5053537;28;20400;-58
2022/01/22 04:06:24;;;;;;;5.82;4.18;;;5.80;99.90;;;;;;5053693;28;20044;-51
2022/01/22 04:09:09;;;;;;;6.82;4.07;;;5.80;99.90;;;;;;5054815;28;20435;-56
2022/01/22 04:11:55;;;;;;;4.85;3.95;;;5.80;99.90;;;;;;5054298;28;20511;-57
2022/01/22 04:14:47;;;;;;;5.35;4.15;;;5.70;99.90;;;;;;5053589;28;20412;-55
2022/01/22 04:29:06;;;;;;;5.60;4.60;;;5.70;99.90;;;;;;5053892;28;20060;-53
2022/01/22 04:31:50;;;;;;;8.52;5.10;;;5.70;99.90;;;;;;5054337;28;20039;-53
2022/01/22 04:34:34;;;;;;;8.05;4.95;;;5.70;99.90;;;;;;5054357;28;20063;-54
2022/01/22 04:37:19;;;;;;;8.98;5.03;;;5.70;99.90;;;;;;5053055;28;20044;-53
2022/01/22 04:40:04;;;;;;;9.50;5.68;;;5.80;99.90;;;;;;5053826;28;20114;-51
2022/01/22 04:42:48;;;;;;;7.93;5.90;;;5.80;99.90;;;;;;5053802;28;20040;-52
2022/01/22 04:45:49;;;;;;;9.60;5.50;;;5.90;99.90;;;;;;5054015;28;20044;-55
2022/01/22 04:57:28;;;;;;;7.13;5.20;;;5.80;99.90;;;;;;5054026;28;20067;-49
2022/01/22 05:00:16;;;;;;;8.65;5.95;;;5.90;99.90;;;;;;5053420;28;20089;-50
2022/01/22 05:03:03;;;;;;;8.32;5.00;;;5.80;99.90;;;;;;5052808;28;20082;-55
2022/01/22 05:05:47;;;;;;;7.55;4.53;;;5.80;99.90;;;;;;5052363;28;20155;-51
2022/01/22 05:08:31;;;;;;;6.90;4.78;;;5.90;99.90;;;;;;5052619;28;20040;-53
2022/01/22 05:11:16;;;;;;;7.82;4.97;;;5.80;99.90;;;;;;5053840;28;20036;-54
2022/01/22 05:14:01;;;;;;;7.22;4.55;;;5.80;99.90;;;;;;5053733;28;20107;-56
2022/01/22 05:16:45;;;;;;;8.30;5.60;;;5.80;99.90;;;;;;5033454;28;20049;-54
2022/01/22 05:19:38;;;;;;;6.50;4.87;;;5.80;99.90;;;;;;5041888;28;20056;-55
2022/01/22 05:25:10;;;;;;;8.05;4.70;;;5.80;99.90;;;;;;5052766;28;20531;-52
2022/01/22 05:31:08;;;;;;;7.55;4.40;;;5.70;99.90;;;;;;5052925;28;20189;-55
2022/01/22 05:39:40;;;;;;;7.22;4.80;;;5.60;99.90;;;;;;5047507;28;20044;-54
2022/01/22 05:42:24;;;;;;;6.03;3.42;;;5.70;99.90;;;;;;5044994;28;20079;-56
2022/01/22 05:45:09;;;;;;;6.32;3.85;;;5.60;99.90;;;;;;5054821;28;20628;-53
2022/01/22 05:47:53;;;;;;;6.20;3.60;;;5.70;99.90;;;;;;5039019;28;20083;-53
2022/01/22 05:50:49;;;;;;;8.00;3.78;;;5.70;99.90;;;;;;5040385;28;20167;-58
2022/01/22 05:59:39;;;;;;;6.55;4.20;;;5.70;99.90;;;;;;5052413;28;20031;-49
2022/01/22 06:02:24;;;;;;;7.95;3.70;;;5.70;99.90;;;;;;5052424;28;20131;-48
2022/01/22 06:05:11;;;;;;;6.05;3.92;;;5.70;99.90;;;;;;5052018;28;20510;-48
2022/01/22 06:07:55;;;;;;;10.40;3.78;;;5.70;99.90;;;;;;5052771;28;20066;-53
2022/01/22 06:10:40;;;;;;;8.75;3.88;;;5.70;99.90;;;;;;5052121;28;20098;-49
2022/01/22 06:13:31;;;;;;;5.82;4.05;;;5.70;99.90;;;;;;5052152;28;20075;-55
2022/01/22 06:16:17;;;;;;;10.43;4.50;;;5.60;99.90;;;;;;5042267;28;20390;-51
2022/01/22 06:19:02;;;;;;;9.05;4.40;;;5.60;99.90;;;;;;5052155;28;20071;-56
2022/01/22 06:21:46;;;;;;;6.28;3.90;;;5.40;99.90;;;;;;5052225;28;20043;-51
2022/01/22 06:24:30;;;;;;;8.40;4.60;;;5.50;99.90;;;;;;5050816;28;20091;-51
2022/01/22 06:27:14;;;;;;;10.23;5.43;;;5.60;99.90;;;;;;5052431;28;20400;-50
2022/01/22 06:29:58;;;;;;;8.80;5.05;;;5.70;99.90;;;;;;5051912;28;20067;-54
2022/01/22 06:32:42;;;;;;;12.95;5.68;;;5.60;99.90;;;;;;5051849;28;20503;-52
2022/01/22 06:35:26;;;;;;;13.98;5.97;;;5.60;99.90;;;;;;5043671;28;20091;-51
2022/01/22 06:38:11;;;;;;;10.52;5.85;;;5.60;99.90;;;;;;5032629;28;20597;-53
2022/01/22 06:43:58;;;;;;;11.60;5.55;;;5.60;99.90;;;;;;5054115;28;20047;-56
2022/01/22 06:46:44;;;;;;;10.65;5.47;;;5.70;99.90;;;;;;5047662;28;20401;-56
2022/01/22 06:49:29;;;;;;;7.30;5.15;;;5.60;99.90;;;;;;5053668;28;20573;-57
2022/01/22 06:52:13;;;;;;;10.05;5.00;;;5.70;99.90;;;;;;5058383;28;20086;-57
2022/01/22 06:54:57;;;;;;;10.55;5.72;;;5.70;99.90;;;;;;5059900;28;20058;-58
2022/01/22 06:57:42;;;;;;;10.82;5.28;;;5.70;99.90;;;;;;5056979;28;20435;-53
2022/01/22 07:00:26;;;;;;;9.70;5.20;;;5.70;99.90;;;;;;5059612;28;20118;-53
2022/01/22 07:03:09;;;;;;;12.32;5.68;;;5.60;99.90;;;;;;5058573;28;20450;-53
2022/01/22 07:05:54;;;;;;;9.20;5.07;;;5.70;99.90;;;;;;5058652;28;20082;-56
2022/01/22 07:08:38;;;;;;;11.50;5.22;;;5.70;99.90;;;;;;5068468;28;20044;-55
2022/01/22 07:11:22;;;;;;;7.23;5.37;;;5.70;99.90;;;;;;5057000;28;20055;-54
2022/01/22 07:14:07;;;;;;;7.97;4.90;;;5.70;99.90;;;;;;5057435;28;20071;-48
2022/01/22 07:16:51;;;;;;;9.40;5.18;;;5.70;99.90;;;;;;5057989;28;20393;-50
2022/01/22 07:19:40;;;;;;;9.75;5.40;;;5.70;99.90;;;;;;5057424;28;20048;-52
2022/01/22 07:22:35;;;;;;;10.07;6.10;;;5.70;99.90;;;;;;5057313;28;20060;-56
2022/01/22 07:25:23;;;;;;;12.18;5.53;;;5.70;99.90;;;;;;5058006;28;20060;-55
2022/01/22 07:28:07;;;;;;;8.90;5.85;;;5.70;99.90;;;;;;5056005;28;20035;-58
2022/01/22 07:30:52;;;;;;;13.90;6.00;;;5.70;99.90;;;;;;5058124;28;20108;-57
2022/01/22 07:33:36;;;;;;;;;;;5.70;99.90;;;;;;5056895;28;20043;-56
2022/01/22 07:36:20;;;;;;;9.77;6.18;;;5.70;99.90;;;;;;5056674;28;20050;-55
2022/01/22 07:39:05;;;;;;;14.95;6.25;;;5.80;99.90;;;;;;5057067;28;20036;-58
2022/01/22 07:41:51;;;;;;;9.02;6.50;;;5.80;99.90;;;;;;5057326;28;20155;-56
2022/01/22 07:44:35;;;;;;;9.48;6.00;;;5.70;99.90;;;;;;5070918;28;20094;-56
2022/01/22 07:47:19;;;;;;;9.02;6.05;;;5.80;99.90;;;;;;5055485;28;20102;-57
2022/01/22 07:50:05;;;;;;;13.77;6.53;;;5.90;99.90;;;;;;5054981;28;20032;-57
2022/01/22 07:52:49;;;;;;;8.60;6.22;;;5.70;99.90;;;;;;5070355;28;20035;-59
2022/01/22 07:55:33;;;;;;;9.93;6.07;;;5.70;99.90;;;;;;5057274;28;20399;-58
2022/01/22 07:58:17;;;;;;;8.93;6.53;;;5.70;99.90;;;;;;5057709;28;20095;-53
2022/01/22 08:01:03;;;;;;;14.40;6.90;;;5.60;99.90;;;;;;5056476;28;20048;-58
2022/01/22 08:03:50;;;;;;;10.43;6.32;;;5.60;99.90;;;;;;5047732;28;20051;-56
2022/01/22 08:06:36;;;;;;;8.40;5.88;;;5.70;99.90;;;;;;5039217;28;20036;-55
2022/01/22 08:09:20;;;;;;;;;;;5.70;99.90;;;;;;5035452;28;20056;-53
2022/01/22 08:12:05;;;;;;;9.82;6.05;;;5.70;99.90;;;;;;5054689;28;19951;-49
2022/01/22 08:14:49;;;;;;;10.05;7.15;;;5.70;99.90;;;;;;5054594;28;20415;-52
2022/01/22 08:17:33;;;;;;;7.57;5.68;;;5.70;99.90;;;;;;5054369;28;20067;-56
2022/01/22 08:20:17;;;;;;;10.45;5.97;;;5.80;99.90;;;;;;5054390;28;20059;-52
2022/01/22 08:23:02;;;;;;;12.20;5.82;;;5.90;99.90;;;;;;5054290;28;20024;-57
2022/01/22 08:25:47;;;;;;;9.77;6.07;;;5.90;99.90;;;;;;5033174;28;20095;-54
2022/01/22 08:37:22;;;;;;;9.57;5.95;;;5.90;99.90;;;;;;5054286;28;20519;-53
2022/01/22 08:40:08;;;;;;;10.63;6.38;;;5.90;99.90;;;;;;5065983;28;20396;-57
2022/01/22 08:42:53;;;;;;;12.40;6.75;;;5.90;99.90;;;;;;5052255;28;20131;-52
2022/01/22 08:45:37;;;;;;;15.43;6.63;;;5.90;99.90;;;;;;5033910;28;20519;-56
2022/01/22 08:48:22;;;;;;;10.02;6.18;;;6.00;99.90;;;;;;5051993;28;20062;-54
2022/01/22 08:51:07;;;;;;;;;;;5.90;99.90;;;;;;5054765;28;20028;-53
2022/01/22 08:53:51;;;;;;;16.17;6.43;;;6.00;99.90;;;;;;5046694;28;19956;-50
2022/01/22 08:56:37;;;;;;;10.32;6.72;;;6.00;99.90;;;;;;5046837;28;20036;-51
2022/01/22 08:59:21;;;;;;;10.05;6.75;;;6.00;99.90;;;;;;5048642;28;20570;-52
2022/01/22 09:02:06;;;;;;;12.50;6.53;;;5.90;99.90;;;;;;5052120;28;20071;-54
2022/01/22 09:04:52;;;;;;;11.68;6.40;;;6.00;99.90;;;;;;5053166;28;20087;-48
2022/01/22 09:07:36;;;;;;;11.75;7.03;;;6.00;99.90;;;;;;5050881;28;20044;-54
2022/01/22 09:10:21;;;;;;;10.38;6.97;;;6.00;99.90;;;;;;5052269;28;20152;-53
2022/01/22 09:13:05;;;;;;;12.23;6.60;;;5.90;99.90;;;;;;5051904;28;20040;-53
2022/01/22 09:15:51;;;;;;;13.55;7.60;;;5.90;99.90;;;;;;5053978;28;20055;-54
2022/01/22 09:18:36;;;;;;;11.80;6.90;;;5.80;99.90;;;;;;5053523;28;20032;-55
2022/01/22 09:21:21;;;;;;;13.25;6.68;;;5.90;99.90;;;;;;5051711;28;20048;-56
2022/01/22 09:24:05;;;;;;;11.70;7.50;;;6.00;99.90;;;;;;5051514;28;20458;-54
2022/01/22 09:26:50;;;;;;;9.43;6.47;;;5.90;99.90;;;;;;5033834;28;20048;-56
2022/01/22 09:29:36;;;;;;;13.25;7.10;;;6.00;99.90;;;;;;5052051;28;20599;-53
2022/01/22 09:32:21;;;;;;;13.43;6.40;;;6.00;99.90;;;;;;5053508;28;20040;-55
2022/01/22 09:35:05;;;;;;;12.50;6.75;;;6.10;99.90;;;;;;5051481;28;20564;-51
2022/01/22 09:37:49;;;;;;;11.13;7.25;;;6.10;99.90;;;;;;5051664;28;20068;-56
2022/01/22 09:40:36;;;;;;;11.35;6.50;;;6.00;99.90;;;;;;5052119;28;20067;-57
2022/01/22 09:43:20;;;;;;;10.15;7.15;;;5.90;99.90;;;;;;5052790;28;20494;-63
2022/01/22 09:46:07;;;;;;;11.90;7.07;;;6.00;99.90;;;;;;5049981;28;20055;-55
2022/01/22 09:48:52;;;;;;;12.98;7.40;;;6.10;99.90;;;;;;5034727;28;20024;-55
2022/01/22 09:51:39;;;;;;;;;;;6.10;99.90;;;;;;5053509;28;20527;-53
2022/01/22 09:54:23;;;;;;;16.17;7.70;;;6.10;99.90;;;;;;5049410;28;19928;-52
2022/01/22 09:57:09;;;;;;;14.38;8.23;;;6.10;99.90;;;;;;5044934;28;20090;-53
2022/01/22 09:59:53;;;;;;;12.10;8.07;;;6.10;99.90;;;;;;5051590;28;20457;-59
2022/01/22 10:02:49;;;;;;;13.93;8.48;;;6.10;99.90;;;;;;5050736;28;20428;-55
2022/01/22 10:05:36;;;;;;;15.57;8.38;;;6.10;99.90;;;;;;5052514;28;20455;-53
2022/01/22 10:08:30;;;;;;;15.70;8.00;;;6.10;99.90;;;;;;5051600;28;20389;-53
2022/01/22 10:11:25;;;;;;;15.85;8.52;;;6.20;99.90;;;;;;5051990;28;20546;-54
2022/01/22 10:14:10;;;;;;;13.00;8.50;;;6.20;99.90;;;;;;5063617;28;20101;-54
2022/01/22 10:16:54;;;;;;;13.73;9.50;;;6.10;99.90;;;;;;5049975;28;20278;-54
2022/01/22 10:19:38;;;;;;;12.07;7.57;;;6.10;99.90;;;;;;5052579;28;20047;-56
2022/01/22 10:22:23;;;;;;;12.90;7.38;;;6.10;99.90;;;;;;5052077;28;20098;-53
2022/01/22 10:25:29;;;;;;;14.88;8.98;;;6.10;99.90;;;;;;5049123;28;20091;-54
2022/01/22 10:28:22;;;;;;;13.70;7.85;;;6.20;99.90;;;;;;5050925;28;20036;-59
2022/01/22 10:31:09;;;;;;;15.48;8.82;;;6.20;99.90;;;;;;5050529;28;20029;-58
2022/01/22 10:34:11;;;;;;;17.30;8.50;;;6.20;99.90;;;;;;5049655;28;20040;-56
2022/01/22 10:36:59;;;;;;;14.50;8.07;;;6.20;99.90;;;;;;5051373;28;20032;-54
2022/01/22 10:39:44;;;;;;;14.10;8.25;;;6.10;99.90;;;;;;5048358;28;20036;-59
2022/01/22 10:42:29;;;;;;;18.20;9.40;;;6.20;99.90;;;;;;5050191;28;20083;-56
2022/01/22 10:45:22;;;;;;;14.93;8.65;;;6.30;99.90;;;;;;5051463;28;20606;-56
2022/01/22 10:48:14;;;;;;;12.27;8.65;;;6.20;99.90;;;;;;5046468;28;20116;-56
2022/01/22 10:51:01;;;;;;;16.42;8.88;;;6.30;99.90;;;;;;5054829;28;20036;-58
2022/01/22 10:53:59;;;;;;;12.88;8.68;;;6.30;99.90;;;;;;5051031;28;20514;-56
2022/01/22 10:56:44;;;;;;;13.63;8.43;;;6.40;99.90;;;;;;5051394;28;20119;-56
2022/01/22 10:59:33;;;;;;;27.95;10.13;;;6.50;99.90;;;;;;5052195;28;20059;-54
2022/01/22 11:02:29;;;;;;;13.57;8.48;;;6.40;99.90;;;;;;5051241;28;20040;-57
2022/01/22 11:05:34;;;;;;;22.40;9.60;;;6.50;99.90;;;;;;5037575;28;20032;-59
2022/01/22 11:08:18;;;;;;;15.30;9.07;;;6.40;99.90;;;;;;5051715;28;20028;-56
2022/01/22 11:11:02;;;;;;;16.70;8.48;;;6.50;99.90;;;;;;5050870;28;20036;-56
2022/01/22 11:13:46;;;;;;;21.08;9.85;;;6.60;99.90;;;;;;5039927;28;20446;-56
2022/01/22 11:16:31;;;;;;;14.93;10.02;;;6.60;99.90;;;;;;5051001;28;20546;-59
2022/01/22 11:19:21;;;;;;;14.55;9.43;;;6.60;99.90;;;;;;5048308;28;20044;-58
2022/01/22 11:22:32;;;;;;;16.08;9.82;;;6.60;99.90;;;;;;5039294;28;20132;-56
2022/01/22 11:25:17;;;;;;;18.58;9.48;;;6.60;99.90;;;;;;5048597;28;20565;-52
2022/01/22 11:28:02;;;;;;;17.23;9.20;;;6.40;99.90;;;;;;5051514;28;20531;-54
2022/01/22 11:30:48;;;;;;;14.35;8.98;;;6.60;99.90;;;;;;5051560;28;20100;-56
2022/01/22 11:33:35;;;;;;;20.00;9.50;;;6.60;99.90;;;;;;5050593;28;20082;-56
2022/01/22 11:36:25;;;;;;;15.80;9.35;;;6.70;99.90;;;;;;5049254;28;20059;-56
2022/01/22 11:39:23;;;;;;;14.80;9.57;;;6.60;99.90;;;;;;5052977;28;20074;-58
2022/01/22 11:42:08;;;;;;;14.10;8.73;;;6.50;99.90;;;;;;5053235;28;20031;-56
2022/01/22 11:45:02;;;;;;;15.65;9.48;;;6.60;99.90;;;;;;5054911;28;20388;-52
2022/01/22 11:48:21;;;;;;;17.40;10.55;;;6.60;99.90;;;;;;5052345;28;20047;-56
2022/01/22 11:51:23;;;;;;;15.63;10.02;;;6.60;99.90;;;;;;5062623;28;20032;-55
2022/01/22 11:54:07;;;;;;;20.00;10.32;;;6.60;99.90;;;;;;5047489;28;20064;-58
2022/01/22 11:56:53;;;;;;;13.10;9.23;;;6.70;99.90;;;;;;5047826;28;20071;-58
2022/01/22 11:59:37;;;;;;;15.88;9.93;;;6.70;99.90;;;;;;5055136;28;20071;-52
2022/01/22 12:02:21;;;;;;;19.88;10.90;;;6.70;99.90;;;;;;5055100;28;20404;-57
2022/01/22 12:05:07;;;;;;;18.27;9.10;;;6.80;99.90;;;;;;5054729;28;20075;-56
2022/01/22 12:08:01;;;;;;;16.40;9.38;;;6.90;99.90;;;;;;5054937;28;20519;-50
2022/01/22 12:16:50;;;;;;;14.75;9.73;;;6.90;99.90;;;;;;5054860;28;20181;-53
2022/01/22 12:20:28;;;;;;;16.33;10.88;;;7.00;99.90;;;;;;5054468;28;20052;-51
2022/01/22 12:22:51;;;;;;;15.43;9.80;;;7.00;99.90;;;;;;5054572;28;20133;-55
2022/01/22 12:25:35;;;;;;;20.30;10.45;;;6.90;99.90;;;;;;5054344;28;20044;-53
2022/01/22 12:28:40;;;;;;;18.35;10.60;;;6.90;99.90;;;;;;5054859;28;20036;-51
2022/01/22 12:31:26;;;;;;;18.73;10.18;;;6.90;99.90;;;;;;5054549;28;20067;-57
2022/01/22 12:34:10;;;;;;;23.33;11.13;;;6.90;99.90;;;;;;5053533;28;20044;-53
2022/01/22 12:36:55;;;;;;;26.08;10.63;;;6.90;99.90;;;;;;5053719;28;20083;-55
2022/01/22 12:39:43;;;;;;;17.80;10.18;;;6.90;99.90;;;;;;5054191;28;20056;-61
2022/01/22 12:42:53;;;;;;;16.35;10.48;;;6.90;99.90;;;;;;5049307;28;20040;-56
2022/01/22 12:45:41;;;;;;;15.25;10.38;;;6.70;99.90;;;;;;5054447;28;20118;-57
2022/01/22 12:48:31;;;;;;;20.73;12.32;;;6.80;99.90;;;;;;5054106;28;20074;-55
2022/01/22 12:51:15;;;;;;;19.05;11.73;;;6.90;99.90;;;;;;5054351;28;20063;-57
2022/01/22 12:54:00;;;;;;;15.85;11.00;;;6.90;99.90;;;;;;5053592;28;20028;-56
2022/01/22 12:56:51;;;;;;;21.88;11.57;;;6.80;99.90;;;;;;5050541;28;20055;-57
2022/01/22 13:00:03;;;;;;;25.17;12.18;;;6.80;99.90;;;;;;5046060;28;20416;-54
2022/01/22 13:02:51;;;;;;;23.02;12.50;;;6.70;99.90;;;;;;5055364;28;20079;-55
2022/01/22 13:05:46;;;;;;;20.88;12.45;;;6.80;99.90;;;;;;5053890;28;20436;-54
2022/01/22 13:08:34;;;;;;;20.75;13.25;;;6.90;99.90;;;;;;5054926;28;20081;-56
2022/01/22 13:11:24;;;;;;;19.33;12.63;;;6.80;99.90;;;;;;5054790;28;20028;-59
2022/01/22 13:14:08;;;;;;;18.85;13.82;;;6.90;99.90;;;;;;5053420;28;20645;-57
2022/01/22 13:16:56;;;;;;;22.83;13.30;;;6.90;99.90;;;;;;5052881;28;20047;-52
2022/01/22 13:19:40;;;;;;;22.77;13.65;;;6.90;99.90;;;;;;5054174;28;20094;-59
2022/01/22 13:22:51;;;;;;;20.88;13.52;;;7.00;99.90;;;;;;5054160;28;20059;-54
2022/01/22 13:25:37;;;;;;;25.60;14.30;;;7.00;99.90;;;;;;5053443;28;20066;-59
2022/01/22 13:28:27;;;;;;;30.42;14.95;;;7.00;99.90;;;;;;5053248;28;20028;-59
2022/01/22 13:31:17;;;;;;;20.58;13.43;;;7.10;99.90;;;;;;5051489;28;20087;-58
2022/01/22 13:34:15;;;;;;;21.60;13.68;;;6.90;99.90;;;;;;5051837;28;20083;-57
2022/01/22 13:38:11;;;;;;;23.13;13.23;;;6.90;99.90;;;;;;5051051;28;20036;-57
2022/01/22 13:49:53;;;;;;;22.85;14.40;;;7.00;99.90;;;;;;5052952;28;20495;-56
2022/01/22 13:52:37;;;;;;;27.67;17.23;;;6.90;99.90;;;;;;5053244;28;20523;-56
2022/01/22 13:55:22;;;;;;;29.27;17.23;;;6.80;99.90;;;;;;5051158;28;20071;-51
2022/01/22 13:58:17;;;;;;;25.85;17.02;;;6.70;99.90;;;;;;5049351;28;20047;-63
2022/01/22 14:01:32;;;;;;;29.23;17.88;;;6.70;99.90;;;;;;5046876;28;20067;-54
2022/01/22 14:04:16;;;;;;;36.05;18.63;;;6.80;99.90;;;;;;5051527;28;20087;-56
2022/01/22 14:07:00;;;;;;;31.50;17.67;;;6.90;99.90;;;;;;5052089;28;20067;-54
2022/01/22 14:09:56;;;;;;;36.28;18.77;;;6.90;99.90;;;;;;5044784;28;20101;-54
2022/01/22 14:12:42;;;;;;;31.42;20.77;;;6.90;99.90;;;;;;5051632;28;20083;-54
2022/01/22 14:15:29;;;;;;;33.53;18.75;;;6.80;99.90;;;;;;5052982;28;20039;-56
2022/01/22 14:18:19;;;;;;;30.00;19.42;;;6.80;99.90;;;;;;5048399;28;20037;-61
2022/01/22 14:21:08;;;;;;;31.58;18.98;;;6.80;99.90;;;;;;5041070;28;20048;-65
2022/01/22 14:23:52;;;;;;;30.98;19.40;;;6.80;99.90;;;;;;5045023;28;20071;-61
2022/01/22 14:26:39;;;;;;;33.27;21.30;;;6.80;99.90;;;;;;5037035;28;20064;-71
2022/01/22 14:29:23;;;;;;;32.78;19.48;;;6.70;99.90;;;;;;5047871;28;20514;-61
2022/01/22 14:32:16;;;;;;;36.90;20.75;;;6.80;99.90;;;;;;5053171;28;20117;-65
2022/01/22 14:35:17;;;;;;;32.78;19.45;;;6.80;99.90;;;;;;5048313;28;20028;-63
2022/01/22 14:38:22;;;;;;;34.22;19.58;;;6.80;99.90;;;;;;5038660;28;20028;-64
2022/01/22 14:44:32;;;;;;;32.42;19.10;;;6.60;99.90;;;;;;5052024;28;20060;-63
2022/01/22 14:47:19;;;;;;;29.98;19.70;;;6.60;99.90;;;;;;5039461;28;20032;-63
2022/01/22 14:50:04;;;;;;;29.23;18.40;;;6.60;99.90;;;;;;5052522;28;20168;-63
2022/01/22 14:52:57;;;;;;;33.25;18.38;;;6.60;99.90;;;;;;5051606;28;20175;-63
2022/01/22 14:55:54;;;;;;;29.65;17.85;;;6.60;99.90;;;;;;5032072;28;20092;-63
2022/01/22 14:58:42;;;;;;;30.27;17.00;;;6.60;99.90;;;;;;5043938;28;20124;-60
2022/01/22 15:01:26;;;;;;;31.13;16.98;;;6.60;99.90;;;;;;5050569;28;20044;-57
2022/01/22 15:04:10;;;;;;;27.95;16.25;;;6.60;99.90;;;;;;5052636;28;20419;-55
2022/01/22 15:06:57;;;;;;;27.87;16.57;;;6.60;99.90;;;;;;5053263;28;20560;-58
2022/01/22 15:09:44;;;;;;;27.27;16.40;;;6.60;99.90;;;;;;5051478;28;20040;-62
2022/01/22 15:12:32;;;;;;;28.88;15.40;;;6.40;99.90;;;;;;5054882;28;20032;-59
2022/01/22 15:15:19;;;;;;;23.08;13.13;;;6.30;99.90;;;;;;5057098;28;20120;-58
2022/01/22 15:18:14;;;;;;;24.70;13.23;;;6.20;99.90;;;;;;5036628;28;20409;-59
2022/01/22 15:22:13;;;;;;;;;;;;;;;;;;;;;
2022/01/22 15:24:49;;;;;;;20.77;11.20;;;6.30;99.90;;;;;;5052711;28;20166;-57
2022/01/22 15:27:33;;;;;;;22.38;11.73;;;6.30;99.90;;;;;;5054735;28;20167;-57
2022/01/22 15:33:34;;;;;;;12.17;7.97;;;6.60;99.90;;;;;;5045981;28;20538;-60
2022/01/22 15:36:18;;;;;;;10.80;7.00;;;6.70;99.90;;;;;;5055258;28;20048;-59
2022/01/22 15:39:05;;;;;;;12.52;6.93;;;6.70;99.90;;;;;;5047073;28;20040;-57
2022/01/22 15:41:51;;;;;;;9.68;6.82;;;6.60;99.90;;;;;;5047581;28;20108;-58
2022/01/22 15:44:35;;;;;;;8.60;6.47;;;6.60;99.90;;;;;;5047642;28;20168;-56
2022/01/22 15:47:24;;;;;;;8.55;6.82;;;6.50;99.90;;;;;;5056791;28;20584;-54
2022/01/22 15:50:09;;;;;;;9.90;6.20;;;6.40;99.90;;;;;;5056974;28;20044;-57
2022/01/22 15:52:54;;;;;;;9.02;5.97;;;6.50;99.90;;;;;;5040934;28;20082;-55
2022/01/22 15:55:38;;;;;;;6.82;5.43;;;6.40;99.90;;;;;;5056445;28;20629;-49
2022/01/22 15:58:22;;;;;;;8.45;5.53;;;6.40;99.90;;;;;;5049714;28;20040;-54
2022/01/22 16:01:09;;;;;;;7.57;4.67;;;6.40;99.90;;;;;;5041433;28;20091;-56
2022/01/22 16:03:56;;;;;;;5.82;4.50;;;6.40;99.90;;;;;;5056412;28;20058;-61
2022/01/22 16:09:34;;;;;;;7.22;4.43;;;6.40;99.90;;;;;;5055201;28;20037;-54
2022/01/22 16:12:20;;;;;;;5.85;4.15;;;6.50;99.90;;;;;;5043862;28;20062;-56
2022/01/22 16:15:05;;;;;;;5.82;4.00;;;6.40;99.90;;;;;;5055079;28;20063;-55
2022/01/22 16:17:50;;;;;;;5.72;4.10;;;6.40;99.90;;;;;;5055322;28;20471;-56
2022/01/22 16:20:34;;;;;;;7.20;3.55;;;6.30;99.90;;;;;;5048440;28;20098;-52
2022/01/22 16:23:18;;;;;;;4.75;3.75;;;6.40;99.90;;;;;;5041705;28;20040;-53
2022/01/22 16:26:02;;;;;;;5.65;3.50;;;6.40;99.90;;;;;;5035447;28;20144;-53
2022/01/22 16:28:47;;;;;;;5.25;3.83;;;6.40;99.90;;;;;;5036475;28;20057;-54
2022/01/22 16:31:33;;;;;;;6.35;3.60;;;6.30;99.90;;;;;;5036126;28;20032;-51
2022/01/22 16:34:18;;;;;;;6.30;3.78;;;6.40;99.90;;;;;;5036624;28;20037;-53
2022/01/22 16:37:02;;;;;;;5.45;3.95;;;6.40;99.90;;;;;;5036349;28;20408;-53
2022/01/22 16:39:48;;;;;;;6.97;4.55;;;6.40;99.90;;;;;;5020470;28;20049;-52